Menu       Home   X °F

Select another period ( hide this area )

Units Period Custom range Directly to
Metric English Both
Daily Weekly Monthly Yearly
use both date-selectors for a custom range
previous Day
With this date
Daily Summary for Friday 01 March 2024
Time Temp. ( °F ) Dew pt. ( °F ) Wind ( mph ) From Gust ( mph ) Pressure ( in ) Humid.( % ) Rainrate ( in )
High47.3 44.6 9.9 SE ( 207/368 ) 13.7 29.59 99 -
Average46.6 43.7 4.2 SE #32/55 6.3 29.56 90 -
Low44.8 42.4 0.6   2.5 29.52 84 -
Daily Tabular details for Friday 01 March 2024
Time Temp. ( °F ) Dew pt. ( °F ) Wind ( mph ) From Gust ( mph ) Pressure ( in ) Humid.( % ) Rainrate ( in )
00:04 44.8 44.4 2.5 ESE 4.3 29.59 99 -
00:09 44.8 44.4 3.1 ESE 5.6 29.59 99 -
00:14 45.0 44.6 2.5 SE 4.3 29.59 99 -
00:19 45.0 44.6 2.5 ESE 4.3 29.59 99 -
00:24 45.1 44.6 3.7 SE 8.1 29.59 98 -
00:29 45.3 44.4 4.3 SE 5.6 29.59 97 -
00:34 45.5 44.4 5.6 SSE 10.6 29.59 96 -
00:39 45.9 43.9 3.7 SE 5.6 29.59 94 -
00:44 46.0 44.1 3.7 SE 5.6 29.59 93 -
00:49 46.0 44.1 3.1 SE 4.3 29.58 93 -
00:54 46.2 44.1 3.1 SE 3.7 29.59 93 -
00:59 46.2 44.1 3.1 SE 4.3 29.59 92 -
01:04 46.2 44.1 3.7 SSE 5.6 29.58 92 -
01:09 46.4 44.2 2.5 ESE 3.7 29.58 92 -
01:14 46.4 44.2 2.5 SE 3.7 29.58 92 -
01:19 46.4 44.2 5.0 SE 6.8 29.58 92 -
01:24 46.8 44.2 5.6 SE 6.8 29.58 91 -
01:29 46.8 44.1 6.8 SE 10.6 29.58 90 -
01:34 46.8 44.1 3.7 ESE 5.6 29.58 90 -
01:39 46.9 44.1 3.7 SSE 6.8 29.58 90 -
01:44 46.9 43.9 3.1 ESE 5.6 29.57 89 -
01:49 46.9 44.2 3.1 SE 4.3 29.57 90 -
01:54 46.9 43.9 3.7 SE 4.3 29.58 89 -
01:59 46.9 43.9 3.1 SE 4.3 29.58 89 -
02:04 46.9 43.9 2.5 SE 3.7 29.57 89 -
02:09 46.8 43.7 3.7 SE 4.3 29.57 89 -
02:14 46.8 43.7 3.7 SE 4.3 29.57 89 -
02:19 46.8 43.7 3.7 SE 5.6 29.57 89 -
02:24 46.8 43.7 3.7 SE 5.6 29.57 89 -
02:29 46.8 43.7 3.7 ESE 6.8 29.56 89 -
02:34 46.9 43.5 3.7 SE 5.6 29.56 88 -
02:39 46.9 43.5 5.0 SE 6.8 29.56 88 -
02:44 46.9 43.5 3.7 ESE 6.8 29.56 88 -
02:49 46.9 43.5 2.5 SE 4.3 29.55 88 -
02:54 46.9 43.5 3.7 SE 4.3 29.55 88 -
02:59 47.1 43.5 5.0 SE 6.8 29.55 88 -
03:04 47.1 43.7 5.6 ESE 10.6 29.55 88 -
03:09 47.1 43.5 5.0 SSE 8.1 29.55 87 -
03:14 47.1 43.5 5.6 ESE 9.3 29.55 87 -
03:19 47.1 43.5 4.3 SE 5.6 29.54 87 -
03:24 47.3 43.3 3.7 ESE 5.6 29.55 86 -
03:29 47.3 43.3 4.3 ESE 5.6 29.54 86 -
03:34 47.3 43.3 6.2 SSE 9.3 29.54 86 -
03:39 47.3 43.0 5.0 ESE 8.1 29.54 85 -
03:43 47.3 43.0 3.7 ESE 6.8 29.53 85 -
03:54 47.3 43.0 6.8 SSE 10.6 29.53 85 -
03:59 47.3 43.0 5.0 SE 8.1 29.53 85 -
04:04 47.3 43.0 5.6 ESE 9.3 29.53 85 -
04:09 47.3 43.0 6.2 SE 9.3 29.53 85 -
04:14 47.3 42.8 6.8 SE 9.3 29.53 85 -
04:19 47.3 42.6 6.2 SE 8.1 29.52 84 -
04:24 47.1 42.4 9.9 SSE 13.7 29.53 84 -
04:29 46.9 42.6 5.0 SE 6.8 29.53 85 -
04:34 46.9 42.6 0.6 SE 2.5 29.53 85 -
04:39 46.9 42.6 0.6 ESE 2.5 29.53 85 -

Download your copy of this data-set  from WeatherUnderground

Our weather-data as stored at Weather Underground

Flag Counter